Time;durP1;ratioP1;P1;durP2;ratioP2;P2;SDS_P1;SDS_P2;PMS_P1;PMS_P2;Temp;Humidity;BMP_temperature;BMP_pressure;BME280_temperature;BME280_humidity;BME280_pressure;Samples;Min_cycle;Max_cycle;Signal;HPM_P1;HPM_P2
2022/03/17 00:02:31;;;;;;;36.17;22.60;;;;;;;2.49;91.36;98541.69;10336901;28;20783;-59
2022/03/17 00:07:30;;;;;;;30.35;20.83;;;;;;;2.43;91.63;98531.19;10336905;28;20531;-59
2022/03/17 00:12:29;;;;;;;27.30;18.38;;;;;;;2.36;92.06;98552.22;10336111;28;20175;-59
2022/03/17 00:17:28;;;;;;;29.00;19.90;;;;;;;2.33;92.08;98557.22;10336254;28;20133;-59
2022/03/17 00:22:28;;;;;;;31.73;20.75;;;;;;;2.36;92.24;98555.63;10336411;28;20080;-59
2022/03/17 00:27:27;;;;;;;29.95;20.30;;;;;;;2.11;92.36;98556.25;10335759;28;20060;-59
2022/03/17 00:32:26;;;;;;;42.53;25.98;;;;;;;2.14;91.94;98563.19;10335788;28;20037;-59
2022/03/17 00:37:25;;;;;;;46.50;29.60;;;;;;;1.98;92.31;98546.25;10335727;28;20064;-59
2022/03/17 00:42:24;;;;;;;40.13;25.42;;;;;;;2.07;92.23;98566.28;10336093;28;20060;-59
2022/03/17 00:47:23;;;;;;;44.55;27.27;;;;;;;2.03;92.53;98574.63;10334918;28;20135;-59
2022/03/17 00:52:22;;;;;;;45.25;26.27;;;;;;;2.02;92.58;98573.75;10335983;28;20033;-59
2022/03/17 00:57:21;;;;;;;47.03;31.27;;;;;;;2.07;92.34;98564.59;10335043;28;20457;-59
2022/03/17 01:02:20;;;;;;;43.05;26.48;;;;;;;1.80;92.29;98515.56;10334645;28;20033;-59
2022/03/17 01:07:19;;;;;;;50.95;33.08;;;;;;;2.07;92.01;98566.28;10334379;28;20095;-59
2022/03/17 01:12:18;;;;;;;47.00;31.42;;;;;;;1.81;92.35;98521.56;10334517;28;20128;-59
2022/03/17 01:17:17;;;;;;;40.92;26.30;;;;;;;2.16;91.63;98569.22;10332757;28;20065;-59
2022/03/17 01:22:16;;;;;;;41.35;26.10;;;;;;;2.23;91.58;98573.84;10334445;28;20040;-59
2022/03/17 01:27:19;;;;;;;;;;;;;;;2.28;90.92;98574.94;10333994;28;20486;-59
2022/03/17 01:32:20;;;;;;;44.10;28.15;;;;;;;2.11;91.75;98561.38;10333848;28;20405;-59
2022/03/17 01:37:19;;;;;;;40.75;25.73;;;;;;;2.22;91.70;98581.47;10334002;28;20065;-59
2022/03/17 01:42:18;;;;;;;38.05;24.17;;;;;;;2.13;92.36;98582.78;10332997;28;20526;-59
2022/03/17 01:47:31;;;;;;;39.78;23.92;;;;;;;1.95;93.11;98593.06;10332879;28;20567;-59
2022/03/17 01:52:30;;;;;;;39.15;23.42;;;;;;;1.91;92.81;98585.19;10333156;28;20069;-59
2022/03/17 01:57:29;;;;;;;40.45;23.38;;;;;;;1.61;92.71;98543.69;10332719;28;20479;-59
2022/03/17 02:02:28;;;;;;;46.67;27.23;;;;;;;2.01;93.13;98623.19;10332377;28;20068;-59
2022/03/17 02:07:27;;;;;;;43.90;24.77;;;;;;;1.94;93.37;98624.56;10332095;28;20140;-59
2022/03/17 02:17:44;;;;;;;44.13;24.48;;;;;;;1.85;92.93;98593.44;10331365;28;20451;-59
2022/03/17 02:22:48;;;;;;;44.95;25.95;;;;;;;1.38;92.96;98517.88;10331636;28;20061;-59
2022/03/17 02:27:47;;;;;;;44.85;25.25;;;;;;;1.92;93.60;98607.41;10331746;28;20073;-59
2022/03/17 02:32:47;;;;;;;45.22;24.58;;;;;;;2.08;92.82;98614.97;10331244;28;20128;-59
2022/03/17 02:37:46;;;;;;;44.92;24.90;;;;;;;1.96;92.88;98588.81;10331143;28;20512;-59
2022/03/17 02:42:45;;;;;;;43.70;22.17;;;;;;;1.21;93.26;98500.88;10331646;28;20494;-59
2022/03/17 02:47:44;;;;;;;49.80;27.75;;;;;;;1.55;94.09;98592.84;10329333;28;20053;-59
2022/03/17 02:52:44;;;;;;;48.00;26.25;;;;;;;1.75;94.11;98635.63;10329621;28;20076;-59
2022/03/17 02:57:47;;;;;;;46.53;26.08;;;;;;;1.67;94.45;98631.84;10331152;28;20475;-59
2022/03/17 03:02:46;;;;;;;35.92;20.73;;;;;;;1.72;93.96;98644.84;10330424;28;20064;-59
2022/03/17 03:07:45;;;;;;;37.72;21.98;;;;;;;1.27;94.00;98578.75;10330204;28;20037;-59
2022/03/17 03:12:44;;;;;;;39.58;23.38;;;;;;;1.41;94.58;98622.00;10330942;28;20120;-59
2022/03/17 03:17:43;;;;;;;33.13;18.92;;;;;;;1.67;93.89;98642.06;10328672;28;20049;-59
2022/03/17 03:22:42;;;;;;;33.20;19.70;;;;;;;1.50;93.79;98610.53;10330001;28;20037;-59
2022/03/17 03:27:43;;;;;;;33.25;19.38;;;;;;;1.08;93.39;98527.53;10333655;28;20052;-59
2022/03/17 03:32:47;;;;;;;32.10;19.15;;;;;;;1.95;93.33;98653.63;10337983;28;20061;-59
2022/03/17 03:37:46;;;;;;;33.55;21.27;;;;;;;1.61;93.10;98618.75;10338038;28;20087;-59
2022/03/17 03:42:45;;;;;;;33.53;19.23;;;;;;;1.69;92.71;98655.81;10338373;28;20105;-59
2022/03/17 03:47:44;;;;;;;37.47;21.80;;;;;;;1.57;92.93;98659.44;10337577;28;20491;-59
2022/03/17 03:52:44;;;;;;;56.72;35.47;;;;;;;1.27;92.94;98623.88;10337502;28;20407;-59
2022/03/17 03:57:43;;;;;;;66.30;40.33;;;;;;;1.78;92.55;98680.94;10337575;28;20079;-59
2022/03/17 04:02:43;;;;;;;57.33;33.33;;;;;;;1.64;92.25;98653.81;10337722;28;20087;-59
2022/03/17 04:07:42;;;;;;;69.07;39.55;;;;;;;1.60;92.84;98697.97;10336921;28;20072;-59
2022/03/17 04:12:41;;;;;;;43.28;26.42;;;;;;;1.58;92.72;98692.78;10336973;28;20108;-59
2022/03/17 04:17:40;;;;;;;49.30;27.30;;;;;;;1.72;92.86;98696.03;10336452;28;20351;-59
2022/03/17 04:22:39;;;;;;;57.10;34.25;;;;;;;1.79;92.28;98704.88;10335936;28;20022;-59
2022/03/17 04:27:38;;;;;;;44.97;23.90;;;;;;;1.81;92.32;98710.94;10337083;28;20068;-59
2022/03/17 04:32:37;;;;;;;38.70;22.13;;;;;;;1.84;92.53;98714.53;10336121;28;20038;-59
2022/03/17 04:37:37;;;;;;;34.15;21.02;;;;;;;0.88;92.56;98598.97;10334712;28;20084;-59
2022/03/17 04:42:35;;;;;;;;;;;;;;;1.65;92.48;98730.66;10337102;28;20060;-60
2022/03/17 04:47:34;;;;;;;32.25;19.05;;;;;;;1.44;92.40;98727.03;10335396;28;20047;-60
2022/03/17 04:57:51;;;;;;;47.88;28.80;;;;;;;1.11;93.74;98752.63;10334889;28;20069;-59
2022/03/17 05:02:50;;;;;;;44.97;25.83;;;;;;;1.16;93.96;98760.53;10333985;28;20068;-59
2022/03/17 05:07:49;;;;;;;42.60;24.17;;;;;;;1.14;93.67;98780.03;10334954;28;20040;-59
2022/03/17 05:12:48;;;;;;;42.97;24.70;;;;;;;1.23;93.65;98781.38;10332954;28;20045;-60
2022/03/17 05:17:47;;;;;;;46.20;28.08;;;;;;;1.18;93.72;98792.16;10334756;28;20034;-59
2022/03/17 05:22:46;;;;;;;57.83;32.33;;;;;;;1.08;93.55;98793.34;10333832;28;20447;-59
2022/03/17 05:27:46;;;;;;;51.78;28.42;;;;;;;0.41;93.74;98697.00;10333769;28;20116;-60
2022/03/17 05:32:47;;;;;;;63.03;35.67;;;;;;;0.56;93.74;98729.25;10334160;28;20069;-59
2022/03/17 05:37:46;;;;;;;69.22;38.83;;;;;;;0.68;93.75;98760.56;10306996;28;20077;-60
2022/03/17 05:42:47;;;;;;;58.58;30.15;;;;;;;1.01;93.60;98819.38;10332047;28;20045;-60
2022/03/17 05:47:52;;;;;;;65.50;35.95;;;;;;;0.67;94.03;98798.00;10313427;28;20088;-59
2022/03/17 05:52:51;;;;;;;72.68;38.50;;;;;;;0.73;93.55;98819.56;10332176;28;20117;-59
2022/03/17 05:57:52;;;;;;;77.13;41.60;;;;;;;0.84;93.68;98837.25;10331373;28;20079;-59
2022/03/17 06:02:52;;;;;;;72.85;37.58;;;;;;;0.73;93.57;98858.75;10332814;28;20057;-59
2022/03/17 06:07:54;;;;;;;71.00;37.22;;;;;;;0.65;93.71;98860.91;10331880;28;20487;-60
2022/03/17 06:12:55;;;;;;;73.47;41.88;;;;;;;0.74;93.64;98860.53;10330985;28;20041;-60
2022/03/17 06:17:59;;;;;;;71.63;37.75;;;;;;;0.77;93.64;98860.69;10332080;28;20071;-59
2022/03/17 06:23:01;;;;;;;80.93;42.35;;;;;;;0.77;94.27;98875.16;10331090;28;20077;-60
2022/03/17 06:28:00;;;;;;;81.82;43.92;;;;;;;0.50;94.24;98828.50;10330824;28;20075;-60
2022/03/17 06:33:01;;;;;;;84.22;45.42;;;;;;;0.71;94.02;98868.03;10331489;28;20033;-60
2022/03/17 06:38:02;;;;;;;238.82;134.52;;;;;;;0.85;93.85;98879.91;10326637;28;20097;-60
2022/03/17 06:43:02;;;;;;;66.47;34.13;;;;;;;0.92;93.95;98893.91;10330906;28;20071;-60
2022/03/17 06:48:01;;;;;;;59.78;31.67;;;;;;;0.75;94.26;98886.97;10329950;28;20605;-60
2022/03/17 06:53:00;;;;;;;75.65;40.92;;;;;;;0.88;93.98;98902.19;10327340;28;20041;-60
2022/03/17 06:58:00;;;;;;;62.63;31.80;;;;;;;0.90;94.14;98914.25;10327955;28;20450;-60
2022/03/17 07:02:59;;;;;;;62.53;32.20;;;;;;;0.70;94.23;98914.78;10325556;28;20068;-60
2022/03/17 07:07:58;;;;;;;51.15;25.70;;;;;;;0.27;94.42;98880.03;10324112;28;20599;-60
2022/03/17 07:12:57;;;;;;;63.08;34.47;;;;;;;0.37;94.48;98917.19;10326108;28;20605;-61
2022/03/17 07:17:56;;;;;;;49.63;29.17;;;;;;;0.25;95.27;98913.94;10325548;28;20287;-60
2022/03/17 07:22:54;;;;;;;43.45;24.90;;;;;;;0.34;95.61;98941.69;10328278;28;20025;-61
2022/03/17 07:27:53;;;;;;;43.67;25.67;;;;;;;-0.77;95.53;98745.53;10327974;28;20108;-61
2022/03/17 07:32:55;;;;;;;47.65;27.90;;;;;;;0.33;95.62;98935.66;10328317;28;20549;-61
2022/03/17 07:37:54;;;;;;;50.83;32.22;;;;;;;0.37;96.23;98950.38;10327884;28;20060;-61
2022/03/17 07:42:53;;;;;;;40.72;24.45;;;;;;;0.44;96.17;98952.50;10327746;28;20057;-61
2022/03/17 07:47:53;;;;;;;31.55;19.02;;;;;;;0.07;96.33;98913.72;10327808;28;20531;-61
2022/03/17 07:52:52;;;;;;;35.42;21.77;;;;;;;0.24;95.88;98940.25;10327651;28;20553;-60
2022/03/17 07:57:51;;;;;;;40.42;22.80;;;;;;;-0.38;95.37;98862.63;10327330;28;20498;-61
2022/03/17 08:02:50;;;;;;;45.03;26.85;;;;;;;0.47;95.42;98982.44;10328520;28;20065;-61
2022/03/17 08:07:49;;;;;;;33.63;21.50;;;;;;;0.49;95.66;98975.75;10328415;28;20072;-61
2022/03/17 08:12:48;;;;;;;28.25;17.85;;;;;;;0.40;95.39;98986.31;10330144;28;20029;-61
2022/03/17 08:17:47;;;;;;;29.92;17.48;;;;;;;0.10;95.41;98946.19;10335581;28;20071;-61
2022/03/17 08:22:49;;;;;;;30.27;18.98;;;;;;;0.19;95.66;98992.69;10335242;28;20033;-61
2022/03/17 08:27:51;;;;;;;44.15;25.50;;;;;;;0.23;96.11;98994.66;10335639;28;20072;-60
2022/03/17 08:32:50;;;;;;;25.73;14.93;;;;;;;-0.05;95.58;98938.53;10334430;28;20068;-60
2022/03/17 08:37:50;;;;;;;28.80;17.80;;;;;;;0.20;96.15;99000.47;10333993;28;20043;-60
2022/03/17 08:42:50;;;;;;;31.30;17.45;;;;;;;-0.12;96.13;98949.16;10333519;28;20064;-60
2022/03/17 08:53:06;;;;;;;38.20;24.70;;;;;;;0.30;96.69;99012.09;10333604;28;20076;-61
2022/03/17 08:58:06;;;;;;;34.55;21.38;;;;;;;0.28;96.65;99031.53;10334022;28;20075;-60
2022/03/17 09:03:06;;;;;;;43.47;26.80;;;;;;;0.18;97.46;99036.91;10334109;28;20072;-60
2022/03/17 09:08:06;;;;;;;30.80;17.20;;;;;;;0.12;97.12;99041.63;10333506;28;20521;-60
2022/03/17 09:13:09;;;;;;;39.22;25.45;;;;;;;0.23;96.99;99045.69;10333861;28;20080;-60
2022/03/17 09:18:10;;;;;;;177.38;95.10;;;;;;;0.01;96.62;98989.94;10333981;28;20072;-60
2022/03/17 09:23:09;;;;;;;62.08;32.42;;;;;;;-0.12;96.66;98944.94;10334269;28;20069;-60
2022/03/17 09:28:08;;;;;;;30.75;16.13;;;;;;;0.21;96.60;99050.72;10332261;28;20072;-61
2022/03/17 09:33:07;;;;;;;38.30;20.38;;;;;;;-0.01;96.87;99052.75;10333761;28;20117;-61
2022/03/17 09:38:07;;;;;;;55.88;34.80;;;;;;;0.13;96.62;99045.94;10331505;28;20085;-60
2022/03/17 09:43:28;;;;;;;58.67;36.53;;;;;;;0.33;96.30;99055.66;10333113;28;20068;-60
2022/03/17 09:48:27;;;;;;;54.97;35.13;;;;;;;0.40;96.20;99046.72;10332545;28;20499;-60
2022/03/17 09:53:28;;;;;;;50.75;27.88;;;;;;;0.24;96.69;99060.22;10333405;28;20435;-60
2022/03/17 09:58:26;;;;;;;42.97;28.45;;;;;;;-0.19;96.56;98987.03;10332952;28;20076;-60
2022/03/17 10:03:28;;;;;;;44.83;26.73;;;;;;;0.35;96.51;99063.44;10332643;28;20025;-61
2022/03/17 10:08:27;;;;;;;43.83;26.38;;;;;;;-0.17;96.45;99028.84;10332469;28;20083;-61
2022/03/17 10:13:26;;;;;;;39.33;26.05;;;;;;;-0.20;96.51;99020.13;10332643;28;20075;-60
2022/03/17 10:18:25;;;;;;;50.53;29.25;;;;;;;-0.30;97.27;99049.25;10332688;28;20073;-60
2022/03/17 10:23:24;;;;;;;45.58;28.00;;;;;;;0.05;97.52;99084.66;10311428;28;20134;-60
2022/03/17 10:28:26;;;;;;;44.17;27.50;;;;;;;-0.12;96.76;99029.13;10331710;28;20120;-60
2022/03/17 10:33:28;;;;;;;34.50;19.70;;;;;;;0.16;96.73;99047.00;10330215;28;20577;-60
2022/03/17 10:38:27;;;;;;;41.15;22.52;;;;;;;0.39;96.61;99073.94;10330864;28;20551;-60
2022/03/17 10:43:26;;;;;;;37.33;23.42;;;;;;;0.12;95.97;99018.66;10329925;28;20037;-60
2022/03/17 10:48:25;;;;;;;;;;;;;;;0.54;96.05;99093.50;10329778;28;20088;-60
2022/03/17 10:53:28;;;;;;;39.03;20.65;;;;;;;0.56;96.04;99090.25;10331108;28;19992;-60
2022/03/17 10:58:27;;;;;;;36.28;20.10;;;;;;;0.64;95.78;99088.19;10330721;28;20529;-60
2022/03/17 11:03:26;;;;;;;35.22;21.27;;;;;;;0.56;96.16;99094.47;10330776;28;20029;-60
2022/03/17 11:08:25;;;;;;;57.83;32.92;;;;;;;0.63;95.69;99100.03;10330500;28;20060;-60
2022/03/17 11:13:26;;;;;;;40.08;21.83;;;;;;;0.20;95.60;99042.97;10330316;28;20076;-60
2022/03/17 11:18:26;;;;;;;33.50;18.42;;;;;;;0.39;95.52;99079.03;10330573;28;20076;-62
2022/03/17 11:23:35;;;;;;;40.88;23.67;;;;;;;0.52;95.50;99106.16;10330654;28;20487;-60
2022/03/17 11:28:39;;;;;;;46.20;26.45;;;;;;;-0.19;95.40;99001.47;10330415;28;20065;-60
2022/03/17 11:33:42;;;;;;;44.63;24.85;;;;;;;0.30;96.00;99096.34;10330337;28;20072;-60
2022/03/17 11:39:02;;;;;;;38.38;21.67;;;;;;;0.23;96.37;99092.53;10329165;28;20077;-60
2022/03/17 11:44:04;;;;;;;58.20;28.73;;;;;;;0.10;96.09;99069.63;10330136;28;20061;-60
2022/03/17 11:49:27;;;;;;;44.65;23.10;;;;;;;-0.16;96.53;99032.25;10334282;28;20077;-60
2022/03/17 11:54:28;;;;;;;47.42;26.27;;;;;;;-0.07;96.76;99062.56;10337349;28;20084;-60
2022/03/17 11:59:47;;;;;;;54.88;34.42;;;;;;;0.13;97.21;99086.78;10337698;28;20431;-62
2022/03/17 12:04:48;;;;;;;46.05;27.35;;;;;;;-1.11;96.72;98874.31;10337817;28;20057;-60
2022/03/17 12:09:48;;;;;;;40.28;23.17;;;;;;;0.04;97.31;99087.97;10336445;28;20060;-62
2022/03/17 12:14:58;;;;;;;49.45;25.75;;;;;;;-0.34;97.30;99037.13;10337039;28;20057;-60
2022/03/17 12:20:09;;;;;;;53.78;31.33;;;;;;;0.16;97.20;99094.63;10337333;28;20499;-60
2022/03/17 12:25:14;;;;;;;48.58;26.73;;;;;;;0.27;96.87;99094.50;10334991;28;20061;-62
2022/03/17 12:30:18;;;;;;;50.33;28.80;;;;;;;0.37;96.71;99087.38;10336455;28;20072;-62
2022/03/17 12:35:19;;;;;;;49.42;27.90;;;;;;;0.47;96.63;99111.03;10336623;28;20057;-62
2022/03/17 12:40:20;;;;;;;58.85;32.83;;;;;;;0.46;96.71;99111.81;10336635;28;20069;-62
2022/03/17 12:45:22;;;;;;;44.17;26.10;;;;;;;0.45;96.94;99102.41;10335847;28;20077;-62
2022/03/17 12:50:20;;;;;;;38.33;21.48;;;;;;;0.38;96.94;99076.38;10336286;28;20100;-62
2022/03/17 12:55:21;;;;;;;47.78;26.05;;;;;;;0.77;96.46;99123.84;10335498;28;20021;-62
2022/03/17 13:00:23;;;;;;;51.17;32.03;;;;;;;0.56;96.65;99105.56;10335199;28;20076;-62
2022/03/17 13:15:59;;;;;;;45.92;26.63;;;;;;;0.65;96.55;99136.78;10334526;28;20073;-62
2022/03/17 13:21:02;;;;;;;50.60;31.35;;;;;;;0.76;96.34;99145.09;10334940;28;20029;-60
2022/03/17 13:26:01;;;;;;;49.33;27.60;;;;;;;0.68;96.62;99136.06;10335048;28;20061;-62
2022/03/17 13:31:00;;;;;;;55.42;31.02;;;;;;;0.14;96.65;99058.78;10334295;28;20111;-62
2022/03/17 13:36:00;;;;;;;49.45;27.88;;;;;;;0.43;96.99;99114.19;10333863;28;20065;-62
2022/03/17 13:41:00;;;;;;;82.82;48.65;;;;;;;0.24;97.13;99081.53;10333715;28;20071;-62
2022/03/17 13:46:01;;;;;;;63.30;37.55;;;;;;;0.54;97.15;99135.25;10333491;28;20204;-62
2022/03/17 13:51:01;;;;;;;62.35;35.05;;;;;;;0.02;97.63;99079.34;10333168;28;20069;-62
2022/03/17 13:56:04;;;;;;;53.03;27.73;;;;;;;0.13;98.07;99127.63;10333129;28;20053;-61
2022/03/17 14:01:08;;;;;;;63.78;33.67;;;;;;;0.29;98.28;99138.00;10333107;28;20065;-61
2022/03/17 14:06:08;;;;;;;85.55;47.70;;;;;;;0.45;97.46;99132.13;10332872;28;20056;-62
2022/03/17 14:11:09;;;;;;;81.05;45.30;;;;;;;0.51;97.41;99126.53;10333087;28;20068;-61
2022/03/17 14:16:12;;;;;;;99.32;54.03;;;;;;;0.35;97.64;99119.59;10332207;28;20076;-61
2022/03/17 14:21:12;;;;;;;143.63;77.50;;;;;;;-0.30;97.96;98997.38;10332190;28;20064;-61
2022/03/17 14:26:12;;;;;;;116.13;69.35;;;;;;;0.44;97.45;99103.16;10332535;28;20064;-61
2022/03/17 14:31:12;;;;;;;105.47;59.75;;;;;;;0.77;97.37;99136.63;10331679;28;20068;-61
2022/03/17 14:36:12;;;;;;;64.53;34.95;;;;;;;0.78;97.23;99133.31;10331457;28;20075;-61
2022/03/17 14:41:12;;;;;;;85.38;49.30;;;;;;;0.74;97.37;99133.91;10332268;28;20093;-61
2022/03/17 14:46:11;;;;;;;73.68;46.78;;;;;;;0.58;97.56;99146.53;10331687;28;20460;-61
2022/03/17 14:51:11;;;;;;;69.90;44.75;;;;;;;0.30;98.39;99126.97;10331507;28;20068;-61
2022/03/17 14:56:13;;;;;;;64.93;38.17;;;;;;;0.48;97.77;99133.22;10331777;28;20068;-61
2022/03/17 15:01:14;;;;;;;83.95;50.40;;;;;;;0.55;97.23;99120.81;10330937;28;20071;-61
2022/03/17 15:06:16;;;;;;;89.78;56.35;;;;;;;0.11;97.55;99043.28;10331056;28;20561;-61
2022/03/17 15:11:18;;;;;;;166.48;94.63;;;;;;;0.72;97.30;99148.25;10330889;28;20073;-60
2022/03/17 15:16:18;;;;;;;55.67;32.42;;;;;;;0.44;97.56;99100.63;10331297;28;20057;-61
2022/03/17 15:21:17;;;;;;;62.63;38.00;;;;;;;0.60;97.71;99152.63;10330407;28;20065;-61
2022/03/17 15:26:16;;;;;;;67.22;38.22;;;;;;;0.60;98.01;99158.63;10337489;28;20034;-61
2022/03/17 15:31:17;;;;;;;53.78;30.35;;;;;;;0.04;97.81;99071.78;10339014;28;20029;-61
2022/03/17 15:36:16;;;;;;;53.45;31.17;;;;;;;-0.06;97.85;99070.34;10338721;28;20061;-61
2022/03/17 15:41:15;;;;;;;70.95;42.40;;;;;;;0.62;97.71;99171.50;10338453;28;20025;-60
2022/03/17 15:46:14;;;;;;;78.43;44.05;;;;;;;0.54;97.91;99168.44;10338221;28;20629;-61
2022/03/17 15:51:14;;;;;;;75.68;43.67;;;;;;;0.05;97.81;99081.19;10338354;28;20565;-61
2022/03/17 15:56:13;;;;;;;;;;;;;;;0.72;97.55;99189.13;10338388;28;20511;-61
2022/03/17 16:01:13;;;;;;;54.50;30.77;;;;;;;0.53;98.40;99183.69;10337720;28;20000;-61
2022/03/17 16:06:12;;;;;;;52.40;29.95;;;;;;;0.47;98.42;99190.19;10337721;28;20067;-61
2022/03/17 16:16:29;;;;;;;83.55;44.67;;;;;;;0.36;98.94;99203.06;10337366;28;20069;-61
2022/03/17 16:21:28;;;;;;;365.15;219.98;;;;;;;0.58;98.34;99210.41;10334318;28;20076;-61
2022/03/17 16:26:27;;;;;;;91.88;57.70;;;;;;;0.82;98.04;99206.78;10337403;28;20109;-61
2022/03/17 16:31:26;;;;;;;169.05;101.65;;;;;;;0.81;97.72;99192.25;10336278;28;20109;-61
2022/03/17 16:36:25;;;;;;;63.60;35.47;;;;;;;0.95;97.53;99216.09;10335300;28;20040;-61
2022/03/17 16:41:25;;;;;;;125.82;83.18;;;;;;;0.81;97.79;99183.72;10335722;28;20033;-61
2022/03/17 16:46:25;;;;;;;93.68;55.65;;;;;;;0.69;97.13;99165.97;10335445;28;20077;-61
2022/03/17 16:51:24;;;;;;;87.57;52.13;;;;;;;1.11;96.96;99220.44;10335979;28;20061;-61
2022/03/17 16:56:24;;;;;;;67.20;46.55;;;;;;;1.05;96.99;99214.97;10334156;28;20036;-61
2022/03/17 17:01:24;;;;;;;51.30;32.00;;;;;;;1.14;97.06;99224.88;10335074;28;20080;-61
2022/03/17 17:06:26;;;;;;;58.88;34.58;;;;;;;0.93;97.10;99198.91;10335260;28;20064;-61
2022/03/17 17:11:25;;;;;;;113.65;62.25;;;;;;;1.00;96.96;99241.94;10334246;28;20060;-61
2022/03/17 17:16:24;;;;;;;105.95;59.17;;;;;;;1.01;97.03;99243.69;10334762;28;20419;-61
2022/03/17 17:21:23;;;;;;;91.25;51.33;;;;;;;0.94;97.13;99251.75;10333340;28;20044;-61
2022/03/17 17:31:41;;;;;;;169.70;99.72;;;;;;;0.60;98.17;99267.59;10334050;28;20073;-61
2022/03/17 17:36:40;;;;;;;195.57;121.32;;;;;;;0.71;98.13;99278.44;10334110;28;20071;-61
2022/03/17 17:41:39;;;;;;;146.05;95.65;;;;;;;0.26;98.08;99205.06;10332822;28;20029;-61
2022/03/17 17:46:39;;;;;;;99.03;59.72;;;;;;;0.70;97.98;99272.47;10332931;28;20052;-61
2022/03/17 17:51:38;;;;;;;96.15;54.90;;;;;;;0.74;98.08;99283.78;10333698;28;20065;-61
2022/03/17 17:56:37;;;;;;;96.10;54.47;;;;;;;0.64;98.19;99272.97;10332188;28;20087;-61
2022/03/17 18:01:39;;;;;;;74.07;47.63;;;;;;;0.59;97.85;99247.91;10332376;28;20056;-61
2022/03/17 18:06:38;;;;;;;57.42;32.65;;;;;;;0.72;98.18;99291.34;10333173;28;20056;-61
2022/03/17 18:11:37;;;;;;;63.35;42.28;;;;;;;0.67;98.03;99305.50;10331854;28;20036;-61
2022/03/17 18:16:36;;;;;;;64.38;40.35;;;;;;;0.22;97.93;99235.41;10333009;28;20558;-61
2022/03/17 18:21:35;;;;;;;75.00;45.47;;;;;;;0.40;97.71;99246.75;10332106;28;20057;-60
2022/03/17 18:26:36;;;;;;;106.82;62.30;;;;;;;0.95;97.40;99325.13;10326720;28;20120;-61
2022/03/17 18:31:35;;;;;;;80.80;49.30;;;;;;;0.99;97.34;99316.81;10332487;28;20351;-60
2022/03/17 18:36:34;;;;;;;66.70;38.33;;;;;;;1.08;97.07;99310.63;10331392;28;20587;-61
2022/03/17 18:41:33;;;;;;;61.28;40.05;;;;;;;1.10;96.88;99295.38;10330808;28;20542;-61
2022/03/17 18:46:32;;;;;;;63.78;37.33;;;;;;;1.05;96.30;99281.41;10331161;28;20084;-61
2022/03/17 18:51:31;;;;;;;;;;;;;;;1.36;96.49;99348.09;10330489;28;20131;-61
2022/03/17 18:56:30;;;;;;;70.65;42.08;;;;;;;1.08;96.68;99282.50;10326501;28;19917;-61
2022/03/17 19:01:29;;;;;;;56.20;35.25;;;;;;;1.50;96.66;99359.16;10329847;28;20037;-61
2022/03/17 19:06:28;;;;;;;227.38;96.80;;;;;;;1.10;96.44;99295.38;10331536;28;20476;-61
2022/03/17 19:11:27;;;;;;;201.27;98.25;;;;;;;1.53;96.25;99355.13;10330896;28;20025;-61
2022/03/17 19:16:26;;;;;;;813.10;379.33;;;;;;;1.30;96.31;99310.25;10329856;28;20211;-61
2022/03/17 19:21:26;;;;;;;675.55;323.45;;;;;;;1.56;96.19;99356.09;10330065;28;20483;-61
2022/03/17 19:26:25;;;;;;;256.02;117.32;;;;;;;1.57;96.14;99366.41;10330311;28;20499;-61
2022/03/17 19:31:24;;;;;;;101.35;53.35;;;;;;;1.57;96.14;99371.53;10330778;28;20029;-61
2022/03/17 19:36:23;;;;;;;74.63;46.10;;;;;;;1.61;96.27;99373.50;10329948;28;20099;-61
2022/03/17 19:41:27;;;;;;;59.70;36.97;;;;;;;1.60;96.20;99376.84;10321201;28;20064;-61
2022/03/17 19:46:26;;;;;;;143.73;98.05;;;;;;;1.43;96.19;99349.34;10300938;28;20073;-61
2022/03/17 19:51:28;;;;;;;200.35;126.93;;;;;;;1.58;95.94;99378.44;10329626;28;20029;-61
2022/03/17 19:56:28;;;;;;;59.47;38.60;;;;;;;1.46;95.81;99367.47;10328702;28;20076;-61
2022/03/17 20:01:27;;;;;;;64.75;39.78;;;;;;;1.30;95.78;99333.25;10330721;28;20064;-61
2022/03/17 20:06:27;;;;;;;93.60;60.78;;;;;;;1.38;96.17;99369.53;10329228;28;20480;-61
2022/03/17 20:16:44;;;;;;;235.70;156.95;;;;;;;1.42;95.88;99375.72;10336087;28;20072;-61
2022/03/17 20:21:43;;;;;;;63.55;42.08;;;;;;;1.26;95.97;99344.09;10336874;28;20072;-61
2022/03/17 20:26:42;;;;;;;63.67;42.45;;;;;;;1.10;95.77;99378.06;10333735;28;20063;-61
2022/03/17 20:31:41;;;;;;;53.17;34.95;;;;;;;0.97;96.08;99402.78;10336734;28;20022;-61
2022/03/17 20:36:40;;;;;;;36.20;24.55;;;;;;;0.89;96.08;99397.16;10335945;28;20029;-61
2022/03/17 20:41:39;;;;;;;34.58;23.48;;;;;;;0.88;95.95;99409.06;10336414;28;20596;-61
2022/03/17 20:46:37;;;;;;;40.40;22.45;;;;;;;0.81;96.18;99414.56;10336158;28;20046;-61
2022/03/17 20:51:37;;;;;;;54.97;34.53;;;;;;;0.72;96.52;99413.97;10335567;28;20041;-61
2022/03/17 20:56:36;;;;;;;44.70;26.15;;;;;;;0.31;96.32;99363.66;10331653;28;20112;-61
2022/03/17 21:01:38;;;;;;;45.15;27.55;;;;;;;0.54;96.75;99431.53;10335775;28;20061;-61
2022/03/17 21:06:38;;;;;;;40.22;25.42;;;;;;;0.25;96.61;99387.09;10334318;28;20057;-61
2022/03/17 21:11:37;;;;;;;33.50;20.98;;;;;;;0.38;96.51;99432.22;10334700;28;20588;-61
2022/03/17 21:16:36;;;;;;;44.58;25.15;;;;;;;0.37;96.45;99445.75;10335110;28;20527;-61
2022/03/17 21:21:35;;;;;;;43.45;26.52;;;;;;;0.44;96.23;99441.94;10333232;28;20065;-61
2022/03/17 21:26:34;;;;;;;62.03;40.15;;;;;;;0.13;96.38;99382.88;10331214;28;20064;-61
2022/03/17 21:31:33;;;;;;;48.03;30.38;;;;;;;0.41;95.99;99457.94;10334939;28;20033;-61
2022/03/17 21:36:32;;;;;;;40.38;23.88;;;;;;;-0.06;95.63;99399.50;10333209;28;20021;-61
2022/03/17 21:41:31;;;;;;;36.33;23.48;;;;;;;0.15;95.74;99463.00;10333759;28;20136;-61
2022/03/17 21:46:31;;;;;;;32.08;20.77;;;;;;;0.13;95.61;99464.56;10334082;28;20120;-61
2022/03/17 21:51:30;;;;;;;34.63;23.55;;;;;;;0.12;95.97;99472.97;10332937;28;20558;-61
2022/03/17 21:56:29;;;;;;;38.17;22.38;;;;;;;0.16;95.50;99475.84;10332711;28;20480;-61
2022/03/17 22:01:29;;;;;;;37.03;21.92;;;;;;;0.22;95.34;99483.06;10329681;28;20060;-61
2022/03/17 22:06:28;;;;;;;34.38;22.77;;;;;;;0.04;95.32;99423.97;10331126;28;20122;-61
2022/03/17 22:11:27;;;;;;;40.10;26.38;;;;;;;0.37;95.29;99460.19;10332751;28;20551;-62
2022/03/17 22:16:26;;;;;;;34.97;22.38;;;;;;;0.59;95.07;99471.06;10332168;28;20069;-62
2022/03/17 22:21:25;;;;;;;38.25;25.05;;;;;;;0.52;95.06;99475.66;10331760;28;20037;-62
2022/03/17 22:26:24;;;;;;;70.18;46.95;;;;;;;0.64;94.99;99486.69;10332305;28;20549;-60
2022/03/17 22:31:23;;;;;;;31.15;22.55;;;;;;;0.72;95.11;99471.84;10328153;28;20463;-60
2022/03/17 22:36:22;;;;;;;44.60;28.55;;;;;;;0.53;94.66;99447.66;10330842;28;20495;-60
2022/03/17 22:41:30;;;;;;;36.95;24.10;;;;;;;0.76;94.51;99492.59;10331968;28;20068;-60
2022/03/17 22:46:30;;;;;;;38.55;25.63;;;;;;;0.76;94.05;99501.94;10329924;28;20073;-60
2022/03/17 22:51:33;;;;;;;79.60;51.17;;;;;;;0.60;94.03;99500.03;10330778;28;20463;-60
2022/03/17 22:56:32;;;;;;;25.50;17.33;;;;;;;0.32;93.42;99472.66;10330077;28;20072;-60
2022/03/17 23:01:33;;;;;;;;;;;;;;;0.37;93.38;99503.63;10328016;28;20148;-61
2022/03/17 23:06:32;;;;;;;27.92;16.05;;;;;;;0.28;93.87;99501.31;10330153;28;19983;-59
2022/03/17 23:11:31;;;;;;;29.85;17.42;;;;;;;0.24;93.30;99513.00;10330861;28;20036;-59
2022/03/17 23:16:32;;;;;;;65.78;40.45;;;;;;;-0.38;92.79;99440.69;10327214;28;20069;-60
2022/03/17 23:21:30;;;;;;;29.17;19.13;;;;;;;0.17;93.46;99526.13;10326459;28;20061;-60
2022/03/17 23:26:29;;;;;;;36.03;21.75;;;;;;;0.22;93.17;99506.03;10327621;28;20032;-59
2022/03/17 23:31:28;;;;;;;28.65;16.55;;;;;;;0.20;93.05;99508.47;10325829;28;20029;-59
2022/03/17 23:36:27;;;;;;;24.52;14.82;;;;;;;0.02;92.89;99477.47;10329953;28;20100;-59
2022/03/17 23:41:26;;;;;;;25.88;15.18;;;;;;;0.16;92.70;99520.91;10329919;28;20073;-59